createdAt,value
2022-08-14T00:01:31.061Z,101010.03
2022-08-14T00:04:35.162Z,101009.34
2022-08-14T00:07:24.442Z,101009.94
2022-08-14T00:10:51.140Z,101009.09
2022-08-14T00:13:24.553Z,101004.09
2022-08-14T00:16:41.041Z,101009.00
2022-08-14T00:19:21.631Z,101000.47
2022-08-14T00:22:08.619Z,101004.41
2022-08-14T00:24:56.284Z,101008.13
2022-08-14T00:27:44.152Z,101001.38
2022-08-14T00:30:37.256Z,101004.25
2022-08-14T00:33:51.109Z,101004.53
2022-08-14T00:36:49.717Z,101004.72
2022-08-14T00:39:37.233Z,100999.66
2022-08-14T00:42:55.157Z,100998.88
2022-08-14T00:45:31.222Z,100995.81
2022-08-14T00:48:34.633Z,100998.59
2022-08-14T00:51:23.467Z,101004.16
2022-08-14T00:54:22.174Z,100999.94
2022-08-14T00:57:09.150Z,100992.06
2022-08-14T00:59:56.503Z,100995.72
2022-08-14T01:02:45.431Z,100991.97
2022-08-14T01:05:51.842Z,100998.78
2022-08-14T01:08:51.769Z,101002.00
2022-08-14T01:11:45.147Z,101001.13
2022-08-14T01:14:43.856Z,100995.13
2022-08-14T01:17:49.513Z,100994.09
2022-08-14T01:20:54.158Z,100998.78
2022-08-14T01:23:47.075Z,100995.13
2022-08-14T01:26:38.898Z,100989.97
2022-08-14T01:29:40.408Z,100989.00
2022-08-14T01:32:37.619Z,100989.88
2022-08-14T01:36:05.287Z,100979.13
2022-08-14T01:38:37.119Z,100979.56
2022-08-14T01:41:30.179Z,100986.47
2022-08-14T01:44:32.940Z,100984.94
2022-08-14T01:47:22.213Z,100982.47
2022-08-14T01:50:11.370Z,100987.09
2022-08-14T01:53:01.250Z,100982.88
2022-08-14T01:55:51.712Z,100976.72
2022-08-14T01:58:57.440Z,100957.09
2022-08-14T02:01:51.338Z,100971.28
2022-08-14T02:04:55.612Z,100977.69
2022-08-14T02:07:44.936Z,100971.47
2022-08-14T02:10:47.369Z,100981.44
2022-08-14T02:13:37.127Z,100981.53
2022-08-14T02:16:29.771Z,100971.94
2022-08-14T02:19:19.404Z,100971.66
2022-08-14T02:22:06.945Z,100973.28
2022-08-14T02:24:57.209Z,100973.19
2022-08-14T02:28:23.307Z,100973.75
2022-08-14T02:30:52.661Z,100970.22
2022-08-14T02:33:42.536Z,100970.78
2022-08-14T02:37:05.186Z,100969.25
2022-08-14T02:39:38.026Z,100957.00
2022-08-14T02:42:37.565Z,100952.19
2022-08-14T02:45:24.507Z,100962.94
2022-08-14T02:49:05.404Z,100952.59
2022-08-14T02:51:19.070Z,100949.13
2022-08-14T02:54:07.365Z,100948.38
2022-08-14T02:57:15.394Z,100944.94
2022-08-14T03:00:03.045Z,100945.78
2022-08-14T03:02:58.758Z,100934.28
2022-08-14T03:05:45.941Z,100936.22
2022-08-14T03:08:38.700Z,100929.97
2022-08-14T03:11:34.514Z,100938.97
2022-08-14T03:14:27.400Z,100932.84
2022-08-14T03:17:15.996Z,100935.63
2022-08-14T03:20:06.929Z,100928.63
2022-08-14T03:22:59.581Z,100929.59
2022-08-14T03:25:49.154Z,100933.03
2022-08-14T03:28:36.622Z,100929.59
2022-08-14T03:31:26.150Z,100926.72
2022-08-14T03:34:25.026Z,100926.16
2022-08-14T03:37:51.626Z,100928.81
2022-08-14T03:40:29.162Z,100933.13
2022-08-14T03:43:17.908Z,100926.72
2022-08-14T03:46:04.540Z,100933.03
2022-08-14T03:49:13.511Z,100934.97
2022-08-14T03:52:03.007Z,100936.69
2022-08-14T03:54:52.644Z,100940.13
2022-08-14T03:57:40.533Z,100899.38
2022-08-14T04:00:43.073Z,100928.53
2022-08-14T04:03:31.727Z,100932.84
2022-08-14T04:06:20.962Z,100937.44
2022-08-14T04:09:08.983Z,100939.47
2022-08-14T04:11:58.038Z,100928.72
2022-08-14T04:14:46.435Z,100925.09
2022-08-14T04:17:44.504Z,100925.97
2022-08-14T04:20:34.283Z,100923.94
2022-08-14T04:23:39.621Z,100911.38
2022-08-14T04:26:42.394Z,100912.06
2022-08-14T04:29:32.807Z,100918.97
2022-08-14T04:33:02.839Z,100911.19
2022-08-14T04:35:55.297Z,100908.13
2022-08-14T04:38:58.474Z,100924.97
2022-08-14T04:42:03.563Z,100913.94
2022-08-14T04:44:51.530Z,100918.78
2022-08-14T04:48:04.692Z,100915.91
2022-08-14T04:50:54.417Z,100909.19
2022-08-14T04:53:44.659Z,100919.53
2022-08-14T04:56:34.323Z,100917.19
2022-08-14T04:59:21.348Z,100902.41
2022-08-14T05:02:18.438Z,100907.16
2022-08-14T05:05:06.440Z,100901.22
2022-08-14T05:08:01.493Z,100903.09
2022-08-14T05:10:52.050Z,100906.34
2022-08-14T05:14:06.562Z,100900.41
2022-08-14T05:16:48.299Z,100905.91
2022-08-14T05:19:44.302Z,100900.31
2022-08-14T05:22:42.170Z,100896.47
2022-08-14T05:25:33.609Z,100902.06
2022-08-14T05:28:25.381Z,100896.78
2022-08-14T05:31:20.545Z,100891.75
2022-08-14T05:34:07.942Z,100891.09
2022-08-14T05:37:01.944Z,100886.16
2022-08-14T05:39:48.895Z,100887.03
2022-08-14T05:42:37.188Z,100879.72
2022-08-14T05:45:24.582Z,100885.94
2022-08-14T05:48:32.955Z,100863.25
2022-08-14T05:51:23.262Z,100873.91
2022-08-14T05:54:26.614Z,100872.56
2022-08-14T05:57:13.913Z,100873.31
2022-08-14T06:00:02.084Z,100869.66
2022-08-14T06:02:50.828Z,100864.72
2022-08-14T06:05:39.691Z,100859.00
2022-08-14T06:08:36.013Z,100862.78
2022-08-14T06:11:30.598Z,100854.56
2022-08-14T06:14:21.325Z,100861.66
2022-08-14T06:17:15.762Z,100868.44
2022-08-14T06:20:14.462Z,100857.38
2022-08-14T06:23:01.073Z,100863.03
2022-08-14T06:25:52.699Z,100861.09
2022-08-14T06:28:40.489Z,100849.50
2022-08-14T06:31:32.345Z,100858.75
2022-08-14T06:35:03.796Z,100846.06
2022-08-14T06:37:27.671Z,100845.94
2022-08-14T06:40:27.118Z,100840.31
2022-08-14T06:43:16.950Z,100844.63
2022-08-14T06:46:04.256Z,100841.88
2022-08-14T06:48:51.085Z,100844.56
2022-08-14T06:51:44.444Z,100848.75
2022-08-14T06:54:32.075Z,100849.00
2022-08-14T06:57:24.492Z,100855.75
2022-08-14T07:00:22.416Z,100851.91
2022-08-14T07:03:33.951Z,100858.06
2022-08-14T07:06:46.497Z,100852.63
2022-08-14T07:09:40.614Z,100841.88
2022-08-14T07:12:34.828Z,100847.59
2022-08-14T07:16:27.517Z,100838.69
2022-08-14T07:19:13.973Z,100842.03
2022-08-14T07:22:05.531Z,100838.56
2022-08-14T07:25:06.146Z,100826.38
2022-08-14T07:27:53.207Z,100830.72
2022-08-14T07:30:41.914Z,100819.34
2022-08-14T07:33:41.735Z,100815.97
2022-08-14T07:36:30.583Z,100822.28
2022-08-14T07:39:17.357Z,100817.56
2022-08-14T07:42:15.531Z,100818.06
2022-08-14T07:45:07.550Z,100814.94
2022-08-14T07:47:58.793Z,100812.59
2022-08-14T07:50:47.018Z,100812.88
2022-08-14T07:53:36.691Z,100814.06
2022-08-14T07:56:47.156Z,100805.84
2022-08-14T07:59:40.830Z,100804.44
2022-08-14T08:02:32.705Z,100805.31
2022-08-14T08:05:24.948Z,100808.59
2022-08-14T08:08:27.267Z,100805.16
2022-08-14T08:11:15.546Z,100801.03
2022-08-14T08:14:24.898Z,100803.16
2022-08-14T08:17:26.365Z,100796.84
2022-08-14T08:20:29.640Z,100801.38
2022-08-14T08:23:20.680Z,100797.22
2022-08-14T08:26:12.070Z,100800.47
2022-08-14T08:29:02.270Z,100789.03
2022-08-14T08:31:52.291Z,100795.72
2022-08-14T08:34:48.599Z,100789.59
2022-08-14T08:37:40.209Z,100789.53
2022-08-14T08:40:31.487Z,100788.34
2022-08-14T08:43:22.344Z,100785.53
2022-08-14T08:46:21.009Z,100782.19
2022-08-14T08:49:18.773Z,100785.47
2022-08-14T08:52:24.901Z,100785.56
2022-08-14T08:55:17.075Z,100775.47
2022-08-14T08:58:16.167Z,100773.19
2022-08-14T09:01:03.180Z,100769.00
2022-08-14T09:03:49.909Z,100770.66
2022-08-14T09:07:00.523Z,100762.72
2022-08-14T09:09:58.596Z,100755.56
2022-08-14T09:12:51.660Z,100760.19
2022-08-14T09:15:42.678Z,100754.94
2022-08-14T09:18:30.226Z,100744.22
2022-08-14T09:21:18.423Z,100750.19
2022-08-14T09:24:29.414Z,100743.75
2022-08-14T09:27:22.386Z,100744.16
2022-08-14T09:30:12.895Z,100739.38
2022-08-14T09:34:01.909Z,100733.59
2022-08-14T09:37:12.936Z,100724.25
2022-08-14T09:40:08.030Z,100723.75
2022-08-14T09:43:12.098Z,100722.38
2022-08-14T09:46:02.552Z,100724.28
2022-08-14T09:48:59.545Z,100719.31
2022-08-14T09:51:58.401Z,100718.97
2022-08-14T09:54:48.008Z,100717.75
2022-08-14T09:57:35.390Z,100712.81
2022-08-14T10:00:42.598Z,100716.94
2022-08-14T10:03:33.991Z,100708.75
2022-08-14T10:06:25.064Z,100704.16
2022-08-14T10:09:16.807Z,100700.56
2022-08-14T10:12:06.607Z,100707.38
2022-08-14T10:14:59.937Z,100700.19
2022-08-14T10:17:49.183Z,100697.31
2022-08-14T10:20:41.905Z,100688.09
2022-08-14T10:23:43.565Z,100685.00
2022-08-14T10:26:30.258Z,100690.09
2022-08-14T10:29:23.314Z,100682.63
2022-08-14T10:32:17.964Z,100692.03
2022-08-14T10:35:17.712Z,100671.25
2022-08-14T10:38:10.700Z,100670.19
2022-08-14T10:41:12.842Z,100671.53
2022-08-14T10:44:21.302Z,100668.09
2022-08-14T10:47:41.175Z,100662.28
2022-08-14T10:50:29.693Z,100655.78
2022-08-14T10:53:17.313Z,100659.88
2022-08-14T10:56:21.745Z,100651.31
2022-08-14T10:59:16.070Z,100652.53
2022-08-14T11:02:03.419Z,100653.34
2022-08-14T11:05:05.279Z,100650.97
2022-08-14T11:08:00.438Z,100651.50
2022-08-14T11:10:49.541Z,100634.97
2022-08-14T11:13:44.186Z,100638.63
2022-08-14T11:16:31.347Z,100631.16
2022-08-14T11:19:19.860Z,100633.06
2022-08-14T11:22:15.338Z,100633.44
2022-08-14T11:25:21.342Z,100634.09
2022-08-14T11:28:10.888Z,100623.53
2022-08-14T11:31:01.111Z,100624.50
2022-08-14T11:33:58.105Z,100618.06
2022-08-14T11:37:04.397Z,100605.97
2022-08-14T11:39:52.257Z,100610.56
2022-08-14T11:42:57.998Z,100605.97
2022-08-14T11:45:48.887Z,100600.59
2022-08-14T11:49:02.610Z,100601.09
2022-08-14T11:51:54.676Z,100595.69
2022-08-14T11:54:43.104Z,100594.53
2022-08-14T11:57:33.780Z,100593.97
2022-08-14T12:00:31.755Z,100589.72
2022-08-14T12:03:27.095Z,100589.34
2022-08-14T12:06:28.589Z,100583.22
2022-08-14T12:09:32.761Z,100566.16
2022-08-14T12:12:35.656Z,100573.09
2022-08-14T12:15:38.097Z,100566.91
2022-08-14T12:18:40.650Z,100553.69
2022-08-14T12:21:35.785Z,100562.66
2022-08-14T12:24:40.887Z,100556.09
2022-08-14T12:30:48.838Z,100551.81
2022-08-14T12:34:03.459Z,100542.50
2022-08-14T12:37:08.156Z,100537.91
2022-08-14T12:40:02.554Z,100529.84
2022-08-14T12:42:56.653Z,100526.22
2022-08-14T12:45:51.327Z,100522.84
2022-08-14T12:49:02.526Z,100521.16
2022-08-14T12:51:59.936Z,100518.69
2022-08-14T12:55:06.447Z,100510.69
2022-08-14T12:58:01.172Z,100502.53
2022-08-14T13:01:16.158Z,100507.78
2022-08-14T13:04:10.117Z,100503.16
2022-08-14T13:07:11.279Z,100498.72
2022-08-14T13:10:45.727Z,100487.94
2022-08-14T13:13:20.182Z,100476.25
2022-08-14T13:16:20.116Z,100487.47
2022-08-14T13:19:12.934Z,100478.41
2022-08-14T13:22:05.385Z,100473.25
2022-08-14T13:24:56.833Z,100477.41
2022-08-14T13:27:45.768Z,100465.69
2022-08-14T13:30:34.133Z,100432.28
2022-08-14T13:33:25.173Z,100446.53
2022-08-14T13:36:24.002Z,100445.63
2022-08-14T13:39:12.846Z,100443.47
2022-08-14T13:42:08.060Z,100437.94
2022-08-14T13:44:56.800Z,100438.00
2022-08-14T13:47:45.453Z,100429.22
2022-08-14T13:50:36.241Z,100426.03
2022-08-14T13:53:24.926Z,100418.56
2022-08-14T13:56:14.401Z,100414.81
2022-08-14T13:59:02.497Z,100411.81
2022-08-14T14:01:51.847Z,100412.06
2022-08-14T14:04:41.547Z,100396.91
2022-08-14T14:07:32.361Z,100399.00
2022-08-14T14:10:28.231Z,100388.97
2022-08-14T14:13:18.555Z,100386.66
2022-08-14T14:16:08.464Z,100385.22
2022-08-14T14:19:06.931Z,100381.94
2022-08-14T14:21:56.481Z,100378.28
2022-08-14T14:24:46.957Z,100359.28
2022-08-14T14:27:40.731Z,100372.50
2022-08-14T14:30:52.174Z,100359.41
2022-08-14T14:33:48.945Z,100356.19
2022-08-14T14:36:36.431Z,100364.06
2022-08-14T14:39:27.558Z,100359.13
2022-08-14T14:42:31.597Z,100352.41
2022-08-14T14:45:24.321Z,100354.19
2022-08-14T14:48:17.247Z,100351.84
2022-08-14T14:51:07.772Z,100352.06
2022-08-14T14:53:54.916Z,100329.41
2022-08-14T14:56:52.308Z,100343.16
2022-08-14T14:59:43.551Z,100341.75
2022-08-14T15:02:36.764Z,100332.31
2022-08-14T15:05:28.518Z,100330.81
2022-08-14T15:08:26.437Z,100320.84
2022-08-14T15:11:24.506Z,100322.03
2022-08-14T15:14:55.530Z,100329.31
2022-08-14T15:17:22.975Z,100319.69
2022-08-14T15:20:16.820Z,100327.16
2022-08-14T15:23:11.891Z,100325.66
2022-08-14T15:25:59.772Z,100337.66
2022-08-14T15:28:48.596Z,100331.88
2022-08-14T15:31:49.565Z,100328.34
2022-08-14T15:34:51.796Z,100327.25
2022-08-14T15:37:42.362Z,100327.34
2022-08-14T15:40:31.579Z,100319.44
2022-08-14T15:43:27.334Z,100321.59
2022-08-14T15:46:41.535Z,100311.78
2022-08-14T15:49:34.480Z,100313.41
2022-08-14T15:52:32.974Z,100317.28
2022-08-14T15:55:23.107Z,100314.72
2022-08-14T15:58:14.277Z,100306.69
2022-08-14T16:01:31.442Z,100301.22
2022-08-14T16:04:25.444Z,100298.66
2022-08-14T16:12:10.893Z,100291.81
2022-08-14T16:15:01.460Z,100290.72
2022-08-14T16:17:50.280Z,100291.06
2022-08-14T16:20:44.632Z,100280.91
2022-08-14T16:23:35.957Z,100285.31
2022-08-14T16:26:29.963Z,100276.56
2022-08-14T16:29:21.309Z,100273.34
2022-08-14T16:32:33.027Z,100271.88
2022-08-14T16:35:18.915Z,100275.66
2022-08-14T16:38:19.262Z,100277.50
2022-08-14T16:41:22.895Z,100270.75
2022-08-14T16:44:32.013Z,100271.03
2022-08-14T16:47:22.555Z,100259.94
2022-08-14T16:50:11.758Z,100261.84
2022-08-14T16:53:02.456Z,100264.41
2022-08-14T16:56:23.227Z,100254.25
2022-08-14T16:59:13.438Z,100255.50
2022-08-14T17:02:05.123Z,100249.59
2022-08-14T17:04:53.688Z,100239.03
2022-08-14T17:07:44.791Z,100243.75
2022-08-14T17:10:35.447Z,100237.47
2022-08-14T17:13:27.433Z,100243.06
2022-08-14T17:16:37.624Z,100239.41
2022-08-14T17:19:25.566Z,100236.25
2022-08-14T17:22:14.072Z,100226.50
2022-08-14T17:25:03.264Z,100224.97
2022-08-14T17:28:49.697Z,100219.84
2022-08-14T17:31:17.537Z,100220.75
2022-08-14T17:34:04.809Z,100220.41
2022-08-14T17:36:54.471Z,100224.84
2022-08-14T17:39:45.987Z,100229.97
2022-08-14T17:43:14.820Z,100241.34
2022-08-14T17:46:01.627Z,100244.91
2022-08-14T17:49:14.540Z,100242.63
2022-08-14T17:52:07.562Z,100247.97
2022-08-14T17:55:07.218Z,100249.22
2022-08-14T17:57:54.752Z,100253.50
2022-08-14T18:00:45.356Z,100240.72
2022-08-14T18:03:49.996Z,100258.75
2022-08-14T18:06:57.360Z,100254.69
2022-08-14T18:09:56.286Z,100257.28
2022-08-14T18:12:46.713Z,100263.47
2022-08-14T18:15:37.413Z,100250.41
2022-08-14T18:18:24.772Z,100266.94
2022-08-14T18:21:39.922Z,100265.38
2022-08-14T18:24:29.395Z,100267.09
2022-08-14T18:27:23.229Z,100267.81
2022-08-14T18:30:32.144Z,100270.22
2022-08-14T18:33:22.213Z,100262.91
2022-08-14T18:36:47.824Z,100268.38
2022-08-14T18:39:32.124Z,100270.25
2022-08-14T18:42:41.356Z,100273.84
2022-08-14T18:45:34.296Z,100268.94
2022-08-14T18:48:50.232Z,100278.09
2022-08-14T18:51:44.795Z,100273.66
2022-08-14T18:54:37.930Z,100270.94
2022-08-14T18:57:24.390Z,100278.06
2022-08-14T19:00:51.397Z,100278.34
2022-08-14T19:04:02.312Z,100285.41
2022-08-14T19:06:56.307Z,100285.06
2022-08-14T19:09:56.228Z,100284.69
2022-08-14T19:13:11.927Z,100285.00
2022-08-14T19:16:07.326Z,100285.50
2022-08-14T19:19:00.425Z,100280.56
2022-08-14T19:21:57.797Z,100287.69
2022-08-14T19:24:45.157Z,100283.09
2022-08-14T19:27:37.442Z,100280.91
2022-08-14T19:30:26.840Z,100280.03
2022-08-14T19:33:55.208Z,100285.63
2022-08-14T19:37:04.542Z,100280.63
2022-08-14T19:39:54.634Z,100290.84
2022-08-14T19:42:46.812Z,100287.59
2022-08-14T19:45:36.447Z,100277.84
2022-08-14T19:48:25.453Z,100278.28
2022-08-14T19:51:12.028Z,100282.66
2022-08-14T19:54:06.513Z,100279.47
2022-08-14T19:57:02.561Z,100278.78
2022-08-14T19:59:58.008Z,100274.31
2022-08-14T20:02:48.867Z,100277.19
2022-08-14T20:05:45.693Z,100278.34
2022-08-14T20:10:59.683Z,100283.75
2022-08-14T20:12:01.668Z,100285.03
2022-08-14T20:14:51.801Z,100278.97
2022-08-14T20:17:40.631Z,100280.53
2022-08-14T20:20:30.687Z,100279.44
2022-08-14T20:23:20.343Z,100265.56
2022-08-14T20:26:30.998Z,100284.66
2022-08-14T20:29:30.244Z,100277.44
2022-08-14T20:32:18.178Z,100279.34
2022-08-14T20:35:08.655Z,100275.69
2022-08-14T20:37:59.993Z,100276.28
2022-08-14T20:41:09.469Z,100273.00
2022-08-14T20:44:20.667Z,100277.16
2022-08-14T20:47:08.033Z,100273.63
2022-08-14T20:50:20.222Z,100246.50
2022-08-14T20:53:33.650Z,100280.22
2022-08-14T20:56:28.622Z,100276.81
2022-08-14T20:59:18.476Z,100276.13
2022-08-14T21:02:30.528Z,100268.88
2022-08-14T21:05:33.977Z,100274.84
2022-08-14T21:08:25.634Z,100277.69
2022-08-14T21:11:17.796Z,100282.41
2022-08-14T21:14:24.785Z,100275.28
2022-08-14T21:17:14.595Z,100279.00
2022-08-14T21:20:26.439Z,100277.84
2022-08-14T21:23:12.398Z,100271.75
2022-08-14T21:25:59.800Z,100261.47
2022-08-14T21:28:47.167Z,100273.69
2022-08-14T21:31:34.294Z,100273.41
2022-08-14T21:34:31.079Z,100274.94
2022-08-14T21:37:19.781Z,100272.06
2022-08-14T21:40:40.696Z,100277.72
2022-08-14T21:43:17.917Z,100267.63
2022-08-14T21:46:05.489Z,100272.00
2022-08-14T21:48:52.323Z,100274.56
2022-08-14T21:51:53.866Z,100269.97
2022-08-14T21:54:49.338Z,100274.47
2022-08-14T21:58:51.381Z,100279.69
2022-08-14T22:00:44.943Z,100270.97
2022-08-14T22:03:35.517Z,100266.94
2022-08-14T22:06:28.897Z,100255.53
2022-08-14T22:09:16.720Z,100251.41
2022-08-14T22:12:45.298Z,100249.38
2022-08-14T22:15:22.029Z,100242.94
2022-08-14T22:18:10.068Z,100243.47
2022-08-14T22:21:08.023Z,100233.53
2022-08-14T22:23:54.704Z,100225.69
2022-08-14T22:26:44.965Z,100227.22
2022-08-14T22:29:33.633Z,100223.06
2022-08-14T22:32:24.135Z,100225.69
2022-08-14T22:35:23.621Z,100222.66
2022-08-14T22:38:34.899Z,100218.78
2022-08-14T22:41:27.716Z,100220.00
2022-08-14T22:44:21.067Z,100223.44
2022-08-14T22:47:10.374Z,100230.22
2022-08-14T22:50:30.506Z,100223.50
2022-08-14T22:53:05.757Z,100222.91
2022-08-14T22:55:53.618Z,100228.66
2022-08-14T22:58:40.592Z,100220.97
2022-08-14T23:01:56.077Z,100223.66
2022-08-14T23:04:53.646Z,100224.03
2022-08-14T23:09:00.463Z,100227.72
2022-08-14T23:10:48.115Z,100219.25
2022-08-14T23:13:38.778Z,100219.19
2022-08-14T23:16:26.163Z,100219.69
2022-08-14T23:19:13.683Z,100215.94
2022-08-14T23:22:02.542Z,100210.56
2022-08-14T23:24:53.013Z,100209.22
2022-08-14T23:28:03.335Z,100214.97
2022-08-14T23:30:50.457Z,100207.53
2022-08-14T23:33:45.677Z,100218.88
2022-08-14T23:36:54.276Z,100215.56
2022-08-14T23:39:43.072Z,100216.06
2022-08-14T23:42:39.763Z,100209.22
2022-08-14T23:45:35.358Z,100210.34
2022-08-14T23:48:27.920Z,100205.44
2022-08-14T23:51:20.030Z,100212.16
2022-08-14T23:54:48.408Z,100207.03
2022-08-14T23:57:15.065Z,100205.31
